AUR2LG EGJB-EGKK
Flight info
| Callsign | AUR2LG |
|---|---|
| Flight time | N/A |
| Altitude | 17000 |
| Route | ORIST L982 VASUX |
| Aircraft | AT76/M-SDFGIRY/S |
Departure
| Time | 2026-05-04 15:07 |
|---|---|
| Airport | Guernsey Airport (EGJB) |
Arrival
| Time | N/A |
|---|---|
| Airport | London Gatwick Airport (EGKK) |
| Time | Latitude | Longitude | Altitude | Speed | Heading |
|---|---|---|---|---|---|
| 2026-05-04 14:57 | 49.43251 | -2.59621 | 323 ft | 0 kts | 178° |
| 2026-05-04 15:01 | 49.43253 | -2.59621 | 322 ft | 1 kts | 178° |
| 2026-05-04 15:01 | 49.43260 | -2.59622 | 323 ft | 1 kts | 178° |
| 2026-05-04 15:01 | 49.43266 | -2.59622 | 323 ft | 1 kts | 179° |
| 2026-05-04 15:02 | 49.43273 | -2.59622 | 323 ft | 1 kts | 179° |
| 2026-05-04 15:02 | 49.43280 | -2.59622 | 323 ft | 1 kts | 179° |
| 2026-05-04 15:02 | 49.43287 | -2.59623 | 323 ft | 1 kts | 179° |
| 2026-05-04 15:02 | 49.43293 | -2.59623 | 323 ft | 1 kts | 179° |
| 2026-05-04 15:03 | 49.43300 | -2.59623 | 323 ft | 1 kts | 180° |
| 2026-05-04 15:03 | 49.43307 | -2.59623 | 324 ft | 1 kts | 180° |
| 2026-05-04 15:03 | 49.43314 | -2.59623 | 324 ft | 1 kts | 180° |
| 2026-05-04 15:03 | 49.43320 | -2.59623 | 324 ft | 0 kts | 180° |
| 2026-05-04 15:04 | 49.43309 | -2.59597 | 322 ft | 5 kts | 63° |
| 2026-05-04 15:04 | 49.43324 | -2.59551 | 324 ft | 5 kts | 63° |
| 2026-05-04 15:04 | 49.43347 | -2.59487 | 323 ft | 13 kts | 59° |
| 2026-05-04 15:05 | 49.43371 | -2.59325 | 328 ft | 16 kts | 87° |
| 2026-05-04 15:05 | 49.43413 | -2.59196 | 329 ft | 13 kts | 15° |
| 2026-05-04 15:05 | 49.43498 | -2.59205 | 331 ft | 11 kts | 347° |
| 2026-05-04 15:05 | 49.43523 | -2.59302 | 330 ft | 7 kts | 260° |
| 2026-05-04 15:06 | 49.43517 | -2.59474 | 327 ft | 40 kts | 267° |
| 2026-05-04 15:06 | 49.43496 | -2.60222 | 313 ft | 99 kts | 268° |
| 2026-05-04 15:06 | 49.43462 | -2.61531 | 335 ft | 139 kts | 268° |
| 2026-05-04 15:07 | 49.43357 | -2.64577 | 1013 ft | 173 kts | 269° |
| 2026-05-04 15:07 | 49.43280 | -2.66603 | 1184 ft | 202 kts | 270° |
| 2026-05-04 15:07 | 49.43228 | -2.68841 | 1449 ft | 217 kts | 270° |
| 2026-05-04 15:07 | 49.43191 | -2.71226 | 1694 ft | 227 kts | 270° |
| 2026-05-04 15:08 | 49.43491 | -2.73615 | 1945 ft | 230 kts | 300° |
| 2026-05-04 15:08 | 49.44670 | -2.75254 | 2207 ft | 235 kts | 337° |
| 2026-05-04 15:08 | 49.46265 | -2.75519 | 2470 ft | 238 kts | 12° |
| 2026-05-04 15:08 | 49.47760 | -2.74454 | 2735 ft | 237 kts | 30° |
| 2026-05-04 15:09 | 49.49228 | -2.73211 | 2985 ft | 244 kts | 28° |
| 2026-05-04 15:09 | 49.50723 | -2.71929 | 3240 ft | 248 kts | 32° |
| 2026-05-04 15:09 | 49.52193 | -2.70546 | 3487 ft | 252 kts | 31° |
| 2026-05-04 15:10 | 49.55401 | -2.68161 | 3953 ft | 262 kts | 22° |
| 2026-05-04 15:10 | 49.57117 | -2.67164 | 4129 ft | 261 kts | 21° |
| 2026-05-04 15:10 | 49.60502 | -2.65220 | 4490 ft | 259 kts | 22° |
| 2026-05-04 15:11 | 49.62175 | -2.64206 | 4670 ft | 258 kts | 22° |
| 2026-05-04 15:11 | 49.63838 | -2.63190 | 4841 ft | 257 kts | 22° |
| 2026-05-04 15:11 | 49.65480 | -2.62188 | 5021 ft | 257 kts | 22° |
| 2026-05-04 15:11 | 49.67140 | -2.61169 | 5196 ft | 257 kts | 22° |
| 2026-05-04 15:12 | 49.68802 | -2.60155 | 5386 ft | 257 kts | 22° |
| 2026-05-04 15:12 | 49.70349 | -2.58880 | 5563 ft | 251 kts | 44° |
| 2026-05-04 15:12 | 49.71444 | -2.56793 | 5754 ft | 249 kts | 58° |
| 2026-05-04 15:12 | 49.72338 | -2.54499 | 5930 ft | 250 kts | 61° |
| 2026-05-04 15:13 | 49.73203 | -2.52162 | 6107 ft | 250 kts | 61° |
| 2026-05-04 15:13 | 49.74088 | -2.49824 | 6292 ft | 251 kts | 60° |
| 2026-05-04 15:13 | 49.74981 | -2.47539 | 6472 ft | 252 kts | 59° |
| 2026-05-04 15:13 | 49.75909 | -2.45233 | 6644 ft | 253 kts | 59° |
| 2026-05-04 15:14 | 49.76842 | -2.42924 | 6817 ft | 254 kts | 59° |
| 2026-05-04 15:14 | 49.77784 | -2.40599 | 6990 ft | 254 kts | 59° |
| 2026-05-04 15:14 | 49.78724 | -2.38279 | 7164 ft | 255 kts | 59° |
| 2026-05-04 15:14 | 49.79667 | -2.35948 | 7338 ft | 256 kts | 59° |
| 2026-05-04 15:15 | 49.80615 | -2.33601 | 7514 ft | 256 kts | 59° |
| 2026-05-04 15:15 | 49.81556 | -2.31251 | 7689 ft | 256 kts | 59° |
| 2026-05-04 15:15 | 49.82484 | -2.28924 | 7869 ft | 257 kts | 59° |
| 2026-05-04 15:16 | 49.84366 | -2.24196 | 8218 ft | 258 kts | 59° |
| 2026-05-04 15:16 | 49.85308 | -2.21823 | 8395 ft | 258 kts | 59° |
| 2026-05-04 15:16 | 49.87190 | -2.17087 | 8757 ft | 259 kts | 60° |
| 2026-05-04 15:17 | 49.88136 | -2.14698 | 8936 ft | 260 kts | 60° |
| 2026-05-04 15:17 | 49.90035 | -2.09901 | 9303 ft | 261 kts | 59° |
| 2026-05-04 15:17 | 49.90984 | -2.07502 | 9487 ft | 261 kts | 60° |
| 2026-05-04 15:18 | 49.91937 | -2.05091 | 9675 ft | 262 kts | 59° |
| 2026-05-04 15:18 | 49.92889 | -2.02679 | 9846 ft | 262 kts | 60° |
| 2026-05-04 15:18 | 49.93832 | -2.00283 | 10017 ft | 262 kts | 60° |
| 2026-05-04 15:19 | 49.95739 | -1.95438 | 10353 ft | 263 kts | 60° |
| 2026-05-04 15:19 | 49.96696 | -1.93008 | 10522 ft | 263 kts | 60° |
| 2026-05-04 15:19 | 49.98594 | -1.88181 | 10865 ft | 263 kts | 60° |
| 2026-05-04 15:20 | 49.99552 | -1.85747 | 11036 ft | 263 kts | 59° |
| 2026-05-04 15:20 | 50.00802 | -1.83716 | 11219 ft | 262 kts | 35° |
| 2026-05-04 15:20 | 50.02399 | -1.82344 | 11387 ft | 263 kts | 27° |
| 2026-05-04 15:20 | 50.04061 | -1.81138 | 11558 ft | 264 kts | 25° |
| 2026-05-04 15:21 | 50.05736 | -1.79941 | 11737 ft | 265 kts | 26° |
| 2026-05-04 15:21 | 50.07380 | -1.78713 | 11913 ft | 266 kts | 27° |
| 2026-05-04 15:21 | 50.10692 | -1.76090 | 12273 ft | 267 kts | 28° |
| 2026-05-04 15:22 | 50.12354 | -1.74772 | 12460 ft | 267 kts | 28° |
| 2026-05-04 15:22 | 50.13863 | -1.73119 | 12640 ft | 264 kts | 42° |
| 2026-05-04 15:22 | 50.16586 | -1.69278 | 13006 ft | 266 kts | 43° |
| 2026-05-04 15:23 | 50.17986 | -1.67371 | 13194 ft | 267 kts | 41° |
| 2026-05-04 15:23 | 50.19417 | -1.65513 | 13375 ft | 268 kts | 40° |
| 2026-05-04 15:23 | 50.20839 | -1.63683 | 13558 ft | 268 kts | 41° |
| 2026-05-04 15:23 | 50.22279 | -1.61813 | 13748 ft | 269 kts | 41° |
| 2026-05-04 15:24 | 50.25165 | -1.58065 | 14090 ft | 270 kts | 41° |
| 2026-05-04 15:24 | 50.28062 | -1.54296 | 14428 ft | 270 kts | 40° |
| 2026-05-04 15:25 | 50.29497 | -1.52449 | 14598 ft | 270 kts | 41° |
| 2026-05-04 15:25 | 50.30949 | -1.50568 | 14769 ft | 270 kts | 41° |
| 2026-05-04 15:25 | 50.32398 | -1.48688 | 14941 ft | 270 kts | 41° |
| 2026-05-04 15:26 | 50.35300 | -1.44919 | 15288 ft | 270 kts | 41° |
| 2026-05-04 15:26 | 50.36746 | -1.43042 | 15462 ft | 270 kts | 41° |
| 2026-05-04 15:26 | 50.39621 | -1.39299 | 15813 ft | 270 kts | 41° |
| 2026-05-04 15:27 | 50.41063 | -1.37419 | 15978 ft | 270 kts | 41° |
| 2026-05-04 15:27 | 50.43954 | -1.33654 | 16335 ft | 269 kts | 41° |
| 2026-05-04 15:28 | 50.46835 | -1.29887 | 16698 ft | 269 kts | 41° |
| 2026-05-04 15:28 | 50.48257 | -1.28026 | 16858 ft | 270 kts | 41° |
| 2026-05-04 15:28 | 50.51176 | -1.24186 | 16963 ft | 278 kts | 41° |
| 2026-05-04 15:29 | 50.52683 | -1.22226 | 16979 ft | 282 kts | 41° |
| 2026-05-04 15:30 | 50.58830 | -1.14148 | 16993 ft | 294 kts | 41° |
| 2026-05-04 15:30 | 50.63588 | -1.07873 | 16562 ft | 301 kts | 41° |
| 2026-05-04 15:31 | 50.66691 | -1.03607 | 15746 ft | 291 kts | 48° |
| 2026-05-04 15:31 | 50.67975 | -1.01166 | 15346 ft | 287 kts | 54° |
| 2026-05-04 15:32 | 50.71608 | -0.93783 | 14177 ft | 283 kts | 52° |
| 2026-05-04 15:32 | 50.74097 | -0.89011 | 13357 ft | 280 kts | 52° |
| 2026-05-04 15:33 | 50.76550 | -0.84264 | 12478 ft | 278 kts | 52° |
| 2026-05-04 15:34 | 50.80217 | -0.77188 | 11180 ft | 276 kts | 51° |
| 2026-05-04 15:34 | 50.81231 | -0.74721 | 10763 ft | 269 kts | 70° |
| 2026-05-04 15:34 | 50.81970 | -0.68973 | 9939 ft | 266 kts | 83° |
| 2026-05-04 15:35 | 50.82516 | -0.63196 | 9038 ft | 265 kts | 81° |
| 2026-05-04 15:35 | 50.82848 | -0.60329 | 8596 ft | 265 kts | 80° |
| 2026-05-04 15:35 | 50.83183 | -0.57461 | 8160 ft | 264 kts | 80° |
| 2026-05-04 15:36 | 50.83842 | -0.51780 | 7305 ft | 263 kts | 80° |
| 2026-05-04 15:36 | 50.84172 | -0.48936 | 6886 ft | 262 kts | 79° |
| 2026-05-04 15:36 | 50.84497 | -0.46101 | 6468 ft | 261 kts | 79° |
| 2026-05-04 15:37 | 50.84822 | -0.43267 | 6033 ft | 261 kts | 79° |
| 2026-05-04 15:37 | 50.85036 | -0.41410 | 5743 ft | 255 kts | 79° |
| 2026-05-04 15:37 | 50.85435 | -0.37930 | 5160 ft | 228 kts | 78° |
| 2026-05-04 15:37 | 50.85615 | -0.36322 | 4874 ft | 219 kts | 78° |
| 2026-05-04 15:38 | 50.85881 | -0.34003 | 4433 ft | 209 kts | 78° |
| 2026-05-04 15:38 | 50.86143 | -0.31768 | 3996 ft | 202 kts | 77° |
| 2026-05-04 15:38 | 50.86391 | -0.29610 | 3573 ft | 197 kts | 78° |
| 2026-05-04 15:38 | 50.86630 | -0.27502 | 3253 ft | 188 kts | 78° |
| 2026-05-04 15:39 | 50.86850 | -0.25525 | 3111 ft | 181 kts | 78° |
| 2026-05-04 15:39 | 50.87087 | -0.23497 | 3055 ft | 194 kts | 77° |
| 2026-05-04 15:39 | 50.87638 | -0.18926 | 3013 ft | 228 kts | 78° |
| 2026-05-04 15:40 | 50.87933 | -0.16393 | 3011 ft | 238 kts | 79° |
| 2026-05-04 15:40 | 50.88229 | -0.13765 | 3007 ft | 247 kts | 79° |
| 2026-05-04 15:40 | 50.88536 | -0.11052 | 3002 ft | 253 kts | 79° |
| 2026-05-04 15:40 | 50.88849 | -0.08340 | 3285 ft | 242 kts | 76° |
| 2026-05-04 15:41 | 50.89632 | -0.06138 | 3631 ft | 232 kts | 41° |
| 2026-05-04 15:41 | 50.91007 | -0.04844 | 3830 ft | 231 kts | 26° |
| 2026-05-04 15:41 | 50.92491 | -0.03778 | 3978 ft | 236 kts | 22° |
| 2026-05-04 15:41 | 50.94023 | -0.02797 | 4128 ft | 239 kts | 21° |
| 2026-05-04 15:42 | 50.95605 | -0.01999 | 4280 ft | 238 kts | 7° |
| 2026-05-04 15:42 | 50.97209 | -0.02516 | 4432 ft | 241 kts | 330° |
| 2026-05-04 15:42 | 50.98334 | -0.04453 | 4592 ft | 245 kts | 296° |
| 2026-05-04 15:42 | 50.98571 | -0.07122 | 4746 ft | 248 kts | 263° |
| 2026-05-04 15:43 | 50.98220 | -0.09795 | 4778 ft | 249 kts | 255° |
| 2026-05-04 15:43 | 50.97331 | -0.12129 | 4335 ft | 245 kts | 222° |
| 2026-05-04 15:43 | 50.95851 | -0.13215 | 3982 ft | 240 kts | 186° |
| 2026-05-04 15:43 | 50.94169 | -0.12748 | 3627 ft | 252 kts | 152° |
| 2026-05-04 15:44 | 50.92915 | -0.10869 | 3389 ft | 249 kts | 118° |